Time;durP1;ratioP1;P1;durP2;ratioP2;P2;SDS_P1;SDS_P2;PMS_P1;PMS_P2;Temp;Humidity;BMP_temperature;BMP_pressure;BME280_temperature;BME280_humidity;BME280_pressure;Samples;Min_cycle;Max_cycle;Signal;HPM_P1;HPM_P2
2022/06/03 00:00:37;;;;;;;6.07;3.53;;;6.60;99.90;;;;;;5055862;28;20124;-60
2022/06/03 00:03:38;;;;;;;4.95;3.33;;;6.60;99.90;;;;;;5025698;28;20127;-60
2022/06/03 00:06:43;;;;;;;4.25;2.90;;;6.50;99.90;;;;;;5051725;28;20500;-60
2022/06/03 00:09:51;;;;;;;4.70;3.50;;;6.50;99.90;;;;;;5026830;28;20042;-59
2022/06/03 00:13:31;;;;;;;3.42;2.67;;;6.50;99.90;;;;;;5027815;28;20034;-60
2022/06/03 00:16:26;;;;;;;3.90;3.05;;;6.50;99.90;;;;;;5027928;28;20284;-61
2022/06/03 00:19:47;;;;;;;4.00;3.08;;;6.50;99.90;;;;;;5040816;28;20140;-60
2022/06/03 00:23:15;;;;;;;4.57;3.22;;;6.40;99.90;;;;;;5054954;28;20040;-60
2022/06/03 00:26:19;;;;;;;4.07;2.60;;;6.30;99.90;;;;;;5057046;28;20032;-60
2022/06/03 00:29:30;;;;;;;3.15;2.78;;;6.30;99.90;;;;;;5049195;28;20071;-61
2022/06/03 00:32:54;;;;;;;6.82;3.17;;;6.30;99.90;;;;;;5063045;28;20033;-60
2022/06/03 00:36:18;;;;;;;4.07;3.28;;;6.30;99.90;;;;;;5054057;28;20068;-59
2022/06/03 00:39:59;;;;;;;3.53;2.63;;;6.20;99.90;;;;;;5067110;28;20624;-59
2022/06/03 00:43:16;;;;;;;5.00;2.83;;;6.10;99.90;;;;;;5051714;28;20029;-59
2022/06/03 00:46:43;;;;;;;4.10;3.20;;;6.10;99.90;;;;;;5055266;28;20105;-60
2022/06/03 00:50:17;;;;;;;6.13;3.78;;;6.10;99.90;;;;;;5058839;28;20518;-59
2022/06/03 00:53:40;;;;;;;5.60;3.38;;;6.10;99.90;;;;;;5048885;28;20262;-60
2022/06/03 00:56:32;;;;;;;4.97;3.10;;;6.10;99.90;;;;;;5032231;28;20041;-60
2022/06/03 01:00:06;;;;;;;3.38;2.63;;;6.00;99.90;;;;;;5032225;28;20416;-60
2022/06/03 01:03:14;;;;;;;4.82;3.28;;;6.00;99.90;;;;;;5066274;28;20056;-60
2022/06/03 01:06:29;;;;;;;6.68;3.40;;;5.90;99.90;;;;;;5060703;28;20040;-59
2022/06/03 01:09:20;;;;;;;4.75;2.83;;;5.90;99.90;;;;;;5064007;28;20056;-60
2022/06/03 01:12:25;;;;;;;4.85;3.38;;;5.90;99.90;;;;;;5058667;28;20056;-60
2022/06/03 01:15:42;;;;;;;5.95;3.65;;;5.90;99.90;;;;;;5060348;28;20083;-60
2022/06/03 01:18:15;;;;;;;5.55;4.07;;;5.90;99.90;;;;;;5040623;28;20032;-60
2022/06/03 01:21:09;;;;;;;3.17;2.88;;;5.90;99.90;;;;;;5071838;28;20119;-60
2022/06/03 01:23:59;;;;;;;4.45;3.65;;;5.90;99.90;;;;;;5047981;28;20029;-60
2022/06/03 01:26:54;;;;;;;6.30;3.90;;;5.90;99.90;;;;;;5055276;28;20053;-61
2022/06/03 01:29:36;;;;;;;3.83;3.13;;;5.80;99.90;;;;;;5045347;28;20025;-61
2022/06/03 01:32:36;;;;;;;4.60;3.20;;;5.70;99.90;;;;;;5031837;28;20052;-61
2022/06/03 01:35:33;;;;;;;5.93;3.55;;;5.70;99.90;;;;;;5031744;28;20034;-60
2022/06/03 01:40:49;;;;;;;4.40;3.20;;;5.70;99.90;;;;;;5022632;22;20049;-51
2022/06/03 01:43:34;;;;;;;4.63;3.53;;;5.60;99.90;;;;;;5011440;28;20033;-49
2022/06/03 01:46:28;;;;;;;4.90;3.58;;;5.60;99.90;;;;;;5004144;28;20037;-54
2022/06/03 01:48:56;;;;;;;4.93;3.58;;;5.60;99.90;;;;;;4991760;28;20367;-52
2022/06/03 01:51:51;;;;;;;4.15;3.22;;;5.60;99.90;;;;;;4998019;28;20030;-54
2022/06/03 01:54:44;;;;;;;4.57;3.10;;;5.50;99.90;;;;;;5011131;28;20060;-54
2022/06/03 01:57:27;;;;;;;3.90;3.00;;;5.50;99.90;;;;;;4995084;28;20034;-51
2022/06/03 02:00:08;;;;;;;6.45;3.70;;;5.50;99.90;;;;;;4991355;28;20046;-54
2022/06/03 02:02:53;;;;;;;3.50;2.83;;;5.40;99.90;;;;;;5007560;28;20064;-55
2022/06/03 02:05:56;;;;;;;4.65;3.33;;;5.40;99.90;;;;;;5010948;28;20666;-55
2022/06/03 02:09:00;;;;;;;4.35;2.88;;;5.40;99.90;;;;;;4991527;28;20052;-52
2022/06/03 02:11:45;;;;;;;5.38;3.00;;;5.40;99.90;;;;;;4998447;28;20022;-54
2022/06/03 02:14:33;;;;;;;5.37;3.40;;;5.40;99.90;;;;;;5010843;28;20414;-55
2022/06/03 02:17:07;;;;;;;5.53;4.00;;;5.40;99.90;;;;;;4996126;28;20669;-53
2022/06/03 02:20:14;;;;;;;5.40;3.88;;;5.40;99.90;;;;;;4991203;28;20521;-51
2022/06/03 02:22:52;;;;;;;4.07;2.97;;;5.30;99.90;;;;;;4990684;28;20596;-51
2022/06/03 02:25:38;;;;;;;3.50;2.95;;;5.30;99.90;;;;;;5010686;28;20037;-50
2022/06/03 02:28:21;;;;;;;5.40;3.25;;;5.30;99.90;;;;;;4991324;28;20144;-54
2022/06/03 02:31:16;;;;;;;5.13;3.72;;;5.30;99.90;;;;;;4992807;28;20037;-55
2022/06/03 02:34:03;;;;;;;7.20;3.75;;;5.20;99.90;;;;;;5010760;28;20052;-50
2022/06/03 02:36:58;;;;;;;6.20;3.67;;;5.20;99.90;;;;;;4999949;28;20081;-56
2022/06/03 02:39:42;;;;;;;4.45;3.35;;;5.20;99.90;;;;;;4990740;28;20038;-53
2022/06/03 02:43:04;;;;;;;6.05;2.92;;;5.20;99.90;;;;;;5003302;28;20050;-52
2022/06/03 02:45:44;;;;;;;6.00;3.58;;;5.20;99.90;;;;;;4946403;29;20031;-53
2022/06/03 02:48:22;;;;;;;5.03;3.10;;;5.20;99.90;;;;;;4924581;29;20730;-53
2022/06/03 02:51:08;;;;;;;6.30;3.58;;;5.20;99.90;;;;;;4981116;28;20062;-53
2022/06/03 02:54:08;;;;;;;3.53;3.22;;;5.10;99.90;;;;;;5029892;28;20037;-55
2022/06/03 02:56:48;;;;;;;3.28;2.95;;;5.10;99.90;;;;;;5008255;28;20224;-53
2022/06/03 02:59:48;;;;;;;4.75;2.88;;;5.10;99.90;;;;;;4990750;28;20034;-54
2022/06/03 03:02:29;;;;;;;4.78;3.25;;;5.10;99.90;;;;;;5004209;28;20049;-55
2022/06/03 03:05:13;;;;;;;4.93;2.90;;;5.10;99.90;;;;;;5029369;28;20115;-53
2022/06/03 03:08:21;;;;;;;3.40;2.80;;;5.20;99.90;;;;;;5007310;28;20026;-53
2022/06/03 03:11:06;;;;;;;;;;;5.20;99.90;;;;;;5028200;28;20068;-54
2022/06/03 03:14:09;;;;;;;3.80;3.00;;;5.30;99.90;;;;;;5029528;28;19912;-53
2022/06/03 03:16:59;;;;;;;4.38;3.10;;;5.30;99.90;;;;;;5008386;28;20049;-55
2022/06/03 03:19:58;;;;;;;5.53;3.35;;;5.30;99.90;;;;;;5028647;28;20029;-52
2022/06/03 03:22:49;;;;;;;4.70;3.00;;;5.40;99.90;;;;;;5005030;28;20042;-54
2022/06/03 03:25:55;;;;;;;6.13;3.28;;;5.40;99.90;;;;;;4990180;28;20045;-51
2022/06/03 03:28:43;;;;;;;5.88;3.28;;;5.40;99.90;;;;;;4990114;28;20035;-55
2022/06/03 03:31:22;;;;;;;3.85;2.92;;;5.40;99.90;;;;;;5000925;28;20511;-55
2022/06/03 03:34:18;;;;;;;4.13;3.08;;;5.70;99.90;;;;;;5029384;28;20033;-56
2022/06/03 03:37:21;;;;;;;5.30;3.20;;;6.30;99.90;;;;;;5010660;28;20125;-55
2022/06/03 03:40:02;;;;;;;6.65;3.63;;;7.20;99.90;;;;;;4989620;28;20519;-54
2022/06/03 03:43:09;;;;;;;2.67;2.35;;;9.30;99.90;;;;;;5005184;28;20100;-50
2022/06/03 03:45:53;;;;;;;;;;;10.80;99.90;;;;;;5017236;28;20087;-54
2022/06/03 03:48:46;;;;;;;2.67;2.45;;;12.00;99.90;;;;;;4983425;28;19909;-55
2022/06/03 03:51:32;;;;;;;2.67;2.45;;;13.20;99.90;;;;;;5012026;28;20038;-55
2022/06/03 03:54:31;;;;;;;2.72;2.13;;;14.00;94.30;;;;;;5029197;28;20060;-55
2022/06/03 03:57:30;;;;;;;3.55;2.22;;;15.00;91.40;;;;;;4989838;28;20512;-51
2022/06/03 04:00:08;;;;;;;3.40;2.33;;;16.00;82.90;;;;;;4994355;28;20416;-55
2022/06/03 04:03:19;;;;;;;4.50;2.40;;;16.70;69.30;;;;;;5028976;28;20594;-54
2022/06/03 04:06:27;;;;;;;2.95;2.25;;;17.60;53.50;;;;;;5007579;28;20116;-53
2022/06/03 04:09:02;;;;;;;3.75;2.10;;;18.60;57.00;;;;;;4989398;28;20065;-55
2022/06/03 04:11:56;;;;;;;3.10;2.28;;;19.50;48.30;;;;;;5009653;28;20072;-54
2022/06/03 04:15:00;;;;;;;3.30;1.65;;;20.40;33.20;;;;;;5010960;28;20538;-56
2022/06/03 04:17:51;;;;;;;1.90;1.70;;;21.30;34.50;;;;;;4914498;29;20090;-55
2022/06/03 04:20:47;;;;;;;3.08;2.28;;;22.00;37.20;;;;;;4986860;28;20050;-51
2022/06/03 04:23:50;;;;;;;2.10;1.90;;;22.80;30.70;;;;;;4993022;28;20025;-52
2022/06/03 04:26:19;;;;;;;1.98;1.85;;;23.50;27.20;;;;;;5008481;28;20269;-56
2022/06/03 04:29:07;;;;;;;1.77;1.60;;;24.10;30.90;;;;;;5009961;28;20038;-56
2022/06/03 04:32:03;;;;;;;1.80;1.70;;;24.50;23.10;;;;;;4983066;28;20037;-54
2022/06/03 04:35:03;;;;;;;2.30;1.83;;;25.20;23.60;;;;;;4999748;28;20480;-56
2022/06/03 04:37:53;;;;;;;4.03;1.67;;;25.80;17.20;;;;;;5013782;28;20281;-57
2022/06/03 04:40:49;;;;;;;2.65;2.17;;;26.40;21.40;;;;;;4985906;28;20042;-56
2022/06/03 04:43:39;;;;;;;2.20;1.90;;;27.10;17.60;;;;;;5028597;28;20029;-55
2022/06/03 04:46:34;;;;;;;2.30;1.60;;;27.70;12.30;;;;;;5013156;28;20120;-57
2022/06/03 04:49:05;;;;;;;2.13;1.90;;;28.30;15.00;;;;;;5006890;28;20041;-56
2022/06/03 04:52:22;;;;;;;3.55;1.85;;;28.90;18.60;;;;;;5008702;28;20478;-55
2022/06/03 04:55:08;;;;;;;2.67;1.60;;;29.30;10.00;;;;;;5010382;28;20034;-56
2022/06/03 04:58:26;;;;;;;2.67;1.98;;;29.70;14.50;;;;;;4989005;28;20035;-57
2022/06/03 05:01:12;;;;;;;1.85;1.75;;;30.50;11.80;;;;;;4971479;28;20506;-53
2022/06/03 05:04:16;;;;;;;1.55;1.45;;;31.00;5.70;;;;;;5003460;28;20032;-54
2022/06/03 05:07:05;;;;;;;2.72;2.22;;;31.50;4.90;;;;;;4988457;28;20041;-55
2022/06/03 05:09:49;;;;;;;1.55;1.45;;;32.10;9.40;;;;;;5027844;28;20056;-56
2022/06/03 05:12:20;;;;;;;1.95;1.70;;;32.60;5.40;;;;;;5006600;28;20104;-55
2022/06/03 05:15:16;;;;;;;1.95;1.30;;;33.10;9.60;;;;;;5010916;28;20037;-57
2022/06/03 05:18:20;;;;;;;2.17;1.30;;;33.80;4.20;;;;;;5008124;28;20029;-56
2022/06/03 05:21:24;;;;;;;3.35;1.58;;;34.10;2.00;;;;;;4991720;28;20034;-51
2022/06/03 05:24:31;;;;;;;1.80;1.42;;;34.40;3.60;;;;;;5008049;28;20338;-56
2022/06/03 05:27:21;;;;;;;2.05;1.33;;;34.90;1.00;;;;;;5029360;28;20397;-56
2022/06/03 05:30:02;;;;;;;1.30;1.20;;;35.50;1.00;;;;;;5030989;28;20038;-55
2022/06/03 05:33:01;;;;;;;1.40;1.23;;;36.00;1.00;;;;;;5009264;28;20426;-56
2022/06/03 05:35:36;;;;;;;1.88;1.30;;;36.50;1.00;;;;;;4991896;28;20030;-54
2022/06/03 05:38:37;;;;;;;0.90;0.90;;;37.30;2.20;;;;;;5015950;28;20057;-56
2022/06/03 05:44:41;;;;;;;4.40;0.93;;;37.80;1.00;;;;;;4991686;28;20081;-56
2022/06/03 05:47:15;;;;;;;3.08;1.10;;;38.20;1.00;;;;;;5005770;28;20053;-57
2022/06/03 05:50:03;;;;;;;1.05;1.05;;;38.30;1.00;;;;;;5031030;28;20044;-56
2022/06/03 05:52:47;;;;;;;1.20;0.90;;;38.60;1.00;;;;;;5003758;28;20095;-56
2022/06/03 05:55:52;;;;;;;1.10;1.00;;;38.40;1.00;;;;;;5030819;28;20057;-57
2022/06/03 05:58:41;;;;;;;1.08;1.00;;;38.30;1.00;;;;;;5016890;28;20065;-49
2022/06/03 06:01:34;;;;;;;1.30;0.95;;;38.60;1.00;;;;;;4991115;28;20062;-48
2022/06/03 06:04:20;;;;;;;0.70;0.70;;;39.00;1.00;;;;;;5011242;28;20029;-49
2022/06/03 06:07:02;;;;;;;1.20;1.02;;;38.70;1.00;;;;;;4992115;28;20489;-48
2022/06/03 06:09:38;;;;;;;2.88;1.00;;;38.60;1.00;;;;;;5030468;28;20024;-53
2022/06/03 06:12:04;;;;;;;1.33;0.80;;;38.90;1.00;;;;;;4996866;28;20218;-50
2022/06/03 06:15:03;;;;;;;1.75;0.85;;;37.80;1.00;;;;;;5030288;28;20048;-50
2022/06/03 06:17:49;;;;;;;1.80;0.90;;;38.60;1.00;;;;;;5003637;28;20026;-50
2022/06/03 06:20:41;;;;;;;2.33;1.13;;;39.10;1.00;;;;;;4990813;28;20038;-50
2022/06/03 06:23:18;;;;;;;1.45;1.02;;;39.30;1.00;;;;;;5013632;28;20030;-53
2022/06/03 06:25:58;;;;;;;2.97;1.10;;;37.80;1.00;;;;;;4989919;28;20066;-51
2022/06/03 06:29:01;;;;;;;2.03;1.00;;;38.60;1.00;;;;;;5003671;28;20046;-50
2022/06/03 06:31:44;;;;;;;2.50;1.40;;;37.90;1.00;;;;;;5029342;28;20029;-54
2022/06/03 06:34:30;;;;;;;3.00;1.10;;;37.90;1.00;;;;;;4991008;28;20506;-53
2022/06/03 06:37:12;;;;;;;2.47;0.93;;;38.60;1.00;;;;;;4994422;28;20057;-51
2022/06/03 06:39:55;;;;;;;1.40;1.23;;;38.80;1.00;;;;;;5029466;28;20037;-49
2022/06/03 06:42:47;;;;;;;1.45;1.00;;;38.50;1.00;;;;;;5000717;28;20037;-53
2022/06/03 06:45:29;;;;;;;1.02;0.95;;;37.50;1.00;;;;;;5029969;28;20477;-51
2022/06/03 06:48:07;;;;;;;1.05;0.90;;;38.10;1.00;;;;;;5004101;28;20056;-53
2022/06/03 06:50:38;;;;;;;3.22;1.00;;;38.40;1.00;;;;;;4990144;28;20058;-47
2022/06/03 06:53:14;;;;;;;2.03;1.10;;;38.70;1.00;;;;;;5015580;28;20037;-52
2022/06/03 06:56:04;;;;;;;1.80;0.80;;;38.70;1.00;;;;;;5029438;28;20033;-52
2022/06/03 06:58:42;;;;;;;1.15;0.77;;;39.50;1.00;;;;;;5003748;28;20091;-49
2022/06/03 07:01:09;;;;;;;0.85;0.80;;;39.50;1.00;;;;;;4989879;28;20026;-47
2022/06/03 07:04:06;;;;;;;1.00;0.70;;;40.20;1.00;;;;;;5010267;28;20042;-55
2022/06/03 07:07:01;;;;;;;2.35;0.80;;;39.70;1.00;;;;;;4989244;28;20050;-52
2022/06/03 07:09:50;;;;;;;2.85;0.80;;;40.40;1.00;;;;;;4989950;28;20117;-52
2022/06/03 07:12:19;;;;;;;0.70;0.70;;;40.00;1.00;;;;;;4999322;28;20053;-47
2022/06/03 07:14:54;;;;;;;0.75;0.75;;;40.60;1.00;;;;;;5029251;28;20156;-53
2022/06/03 07:20:49;;;;;;;1.35;0.98;;;40.40;1.00;;;;;;5029243;28;20029;-51
2022/06/03 07:23:29;;;;;;;1.92;1.13;;;39.50;1.00;;;;;;5001549;28;20038;-48
2022/06/03 07:26:19;;;;;;;2.50;0.88;;;39.90;1.00;;;;;;5028891;28;20040;-56
2022/06/03 07:29:17;;;;;;;1.88;1.20;;;39.10;1.00;;;;;;4980090;28;20037;-50
2022/06/03 07:31:58;;;;;;;0.80;0.80;;;39.20;1.00;;;;;;5007342;28;20025;-52
2022/06/03 07:34:32;;;;;;;1.38;0.93;;;39.30;1.00;;;;;;5008983;28;20060;-49
2022/06/03 07:37:18;;;;;;;1.33;0.87;;;39.80;1.00;;;;;;4993471;28;20099;-50
2022/06/03 07:39:56;;;;;;;0.93;0.90;;;40.20;1.00;;;;;;5028570;28;20088;-54
2022/06/03 07:42:39;;;;;;;0.77;0.77;;;40.40;1.00;;;;;;4999878;28;20049;-48
2022/06/03 07:45:11;;;;;;;1.85;0.70;;;39.80;1.00;;;;;;4989260;28;20463;-53
2022/06/03 07:47:37;;;;;;;2.58;1.15;;;40.10;1.00;;;;;;5004168;28;20026;-49
2022/06/03 07:50:08;;;;;;;0.80;0.80;;;39.60;1.00;;;;;;5009128;28;20437;-52
2022/06/03 07:52:40;;;;;;;1.10;0.70;;;39.80;1.00;;;;;;5002974;28;20307;-50
2022/06/03 07:55:11;;;;;;;2.15;0.80;;;40.50;1.00;;;;;;4989060;28;20014;-53
2022/06/03 07:57:37;;;;;;;1.70;0.63;;;41.50;1.00;;;;;;5004001;28;20033;-54
2022/06/03 08:00:13;;;;;;;1.30;0.77;;;41.30;1.00;;;;;;5013442;28;20056;-54
2022/06/03 08:02:38;;;;;;;1.42;1.00;;;41.10;1.00;;;;;;5004302;28;20097;-60
2022/06/03 08:05:17;;;;;;;0.90;0.68;;;40.50;1.00;;;;;;5008978;28;20073;-59
2022/06/03 08:13:20;;;;;;;1.17;0.60;;;40.50;1.00;;;;;;5001898;28;20286;-60
2022/06/03 08:16:00;;;;;;;1.95;0.98;;;39.90;1.00;;;;;;5027333;28;20444;-60
2022/06/03 08:18:34;;;;;;;1.23;0.90;;;39.10;1.00;;;;;;5002263;28;20523;-60
2022/06/03 08:21:06;;;;;;;2.40;1.00;;;38.80;1.00;;;;;;5028101;28;20481;-60
2022/06/03 08:23:34;;;;;;;1.95;1.00;;;39.40;1.00;;;;;;4990637;28;20513;-60
2022/06/03 08:26:04;;;;;;;1.20;1.10;;;39.80;1.00;;;;;;5008168;28;20036;-60
2022/06/03 08:28:34;;;;;;;1.02;0.93;;;38.20;1.00;;;;;;5002600;28;20393;-60
2022/06/03 08:31:03;;;;;;;2.05;0.77;;;38.70;1.00;;;;;;5028029;28;20033;-60
2022/06/03 08:33:47;;;;;;;1.13;1.02;;;39.30;1.00;;;;;;4991104;28;20039;-59
2022/06/03 08:36:21;;;;;;;1.40;0.70;;;38.10;1.00;;;;;;4989016;28;20045;-60
2022/06/03 08:38:56;;;;;;;0.90;0.70;;;38.40;1.00;;;;;;5004771;28;20099;-60
2022/06/03 08:41:48;;;;;;;1.67;0.93;;;38.60;1.00;;;;;;5006273;28;20069;-60
2022/06/03 08:44:25;;;;;;;1.70;0.80;;;37.50;1.00;;;;;;5028052;28;20531;-60
2022/06/03 08:46:50;;;;;;;1.25;1.00;;;38.20;1.00;;;;;;4991236;28;20105;-60
2022/06/03 08:49:23;;;;;;;1.42;0.70;;;38.90;1.00;;;;;;5030682;28;20155;-60
2022/06/03 08:52:00;;;;;;;1.15;0.90;;;39.40;1.00;;;;;;4994587;28;20497;-59
2022/06/03 08:54:37;;;;;;;1.55;0.85;;;39.60;1.00;;;;;;5031904;28;20500;-60
2022/06/03 08:57:20;;;;;;;1.13;0.95;;;40.50;1.00;;;;;;4998276;28;20163;-61
2022/06/03 08:59:51;;;;;;;1.55;0.68;;;40.50;1.00;;;;;;5019237;28;20033;-60
2022/06/03 09:02:33;;;;;;;2.53;0.80;;;41.20;1.00;;;;;;5009943;28;20034;-60
2022/06/03 09:05:06;;;;;;;1.50;0.70;;;41.60;1.00;;;;;;5011765;28;20029;-60
2022/06/03 09:07:39;;;;;;;0.90;0.65;;;41.60;1.00;;;;;;5005942;28;20032;-60
2022/06/03 09:10:16;;;;;;;0.70;0.65;;;40.40;1.00;;;;;;4992287;28;20705;-60
2022/06/03 09:12:51;;;;;;;1.63;0.90;;;40.80;1.00;;;;;;5028133;28;20508;-60
2022/06/03 09:15:25;;;;;;;0.73;0.70;;;39.60;1.00;;;;;;4992118;28;20034;-60
2022/06/03 09:18:21;;;;;;;0.60;0.60;;;39.60;1.00;;;;;;5028780;28;20029;-60
2022/06/03 09:20:54;;;;;;;0.80;0.80;;;39.70;1.00;;;;;;4992144;28;20425;-61
2022/06/03 09:23:22;;;;;;;1.05;0.80;;;39.10;1.00;;;;;;5004388;28;20321;-60
2022/06/03 09:25:54;;;;;;;1.45;1.08;;;38.70;1.00;;;;;;5030575;28;20570;-60
2022/06/03 09:28:33;;;;;;;1.52;0.90;;;39.20;1.00;;;;;;5004431;28;20080;-60
2022/06/03 09:31:02;;;;;;;0.85;0.70;;;39.30;1.00;;;;;;4991919;28;20062;-60
2022/06/03 09:33:29;;;;;;;0.63;0.63;;;38.90;1.00;;;;;;5013369;28;20033;-59
2022/06/03 09:35:58;;;;;;;2.55;0.80;;;38.80;1.00;;;;;;5030599;28;20029;-60
2022/06/03 09:38:28;;;;;;;1.60;0.80;;;39.10;1.00;;;;;;4994437;28;20083;-60
2022/06/03 09:40:58;;;;;;;1.58;0.85;;;38.10;1.00;;;;;;5015996;28;20050;-60
2022/06/03 09:43:34;;;;;;;1.17;1.00;;;38.70;1.00;;;;;;5029005;28;20041;-60
2022/06/03 09:46:01;;;;;;;0.80;0.70;;;38.60;1.00;;;;;;4991601;28;20038;-60
2022/06/03 09:48:34;;;;;;;1.92;0.80;;;38.80;1.00;;;;;;5012731;28;20030;-60
2022/06/03 09:51:15;;;;;;;2.25;0.80;;;39.10;1.00;;;;;;4991493;28;20034;-60
2022/06/03 09:53:43;;;;;;;0.88;0.80;;;39.20;1.00;;;;;;5006755;28;20109;-60
2022/06/03 09:56:32;;;;;;;0.80;0.80;;;37.10;1.00;;;;;;5028432;28;20028;-60
2022/06/03 09:59:02;;;;;;;2.05;0.75;;;35.20;1.00;;;;;;4991639;28;20061;-60
2022/06/03 10:01:29;;;;;;;1.15;0.75;;;32.70;1.00;;;;;;5012649;28;20157;-59
2022/06/03 10:04:04;;;;;;;1.00;0.80;;;31.00;1.00;;;;;;5030313;28;20033;-59
2022/06/03 10:17:36;;;;;;;2.35;0.90;;;26.00;1.00;;;;;;4990232;28;20081;-60
2022/06/03 10:20:03;;;;;;;1.05;0.95;;;25.50;1.00;;;;;;5010054;28;20042;-60
2022/06/03 10:22:29;;;;;;;1.25;1.10;;;25.20;1.00;;;;;;5028527;28;20028;-60
2022/06/03 10:24:56;;;;;;;1.30;0.88;;;24.90;1.00;;;;;;4993501;28;20085;-60
2022/06/03 10:27:21;;;;;;;2.00;0.70;;;24.80;1.00;;;;;;5008736;28;20040;-60
2022/06/03 10:29:49;;;;;;;1.27;0.88;;;24.70;1.00;;;;;;5012701;28;20034;-60
2022/06/03 10:32:19;;;;;;;0.65;0.65;;;24.50;1.00;;;;;;5028494;28;20076;-60
2022/06/03 10:34:45;;;;;;;1.10;1.00;;;24.40;1.00;;;;;;4994334;28;20058;-61
2022/06/03 10:37:18;;;;;;;1.05;0.80;;;24.40;1.00;;;;;;5008552;28;20058;-61
2022/06/03 10:39:44;;;;;;;3.65;1.20;;;24.20;1.00;;;;;;5000835;28;20119;-60
2022/06/03 10:42:28;;;;;;;1.40;1.00;;;23.80;1.10;;;;;;5028160;28;20681;-61
2022/06/03 10:44:58;;;;;;;0.90;0.90;;;23.40;2.70;;;;;;5002106;28;20453;-60
2022/06/03 10:47:35;;;;;;;1.65;1.20;;;23.30;2.50;;;;;;5028313;28;20048;-60
2022/06/03 10:50:04;;;;;;;1.30;1.10;;;23.40;2.10;;;;;;5003252;28;20499;-61
2022/06/03 11:01:24;;;;;;;1.33;0.97;;;23.30;2.60;;;;;;5006235;28;20439;-61
2022/06/03 11:03:52;;;;;;;2.70;1.00;;;23.00;3.40;;;;;;5025688;28;20307;-59
2022/06/03 11:06:23;;;;;;;1.48;0.80;;;23.00;3.60;;;;;;5028603;28;20480;-60
2022/06/03 11:08:56;;;;;;;2.50;1.23;;;22.90;2.70;;;;;;4998562;28;20028;-60
2022/06/03 11:11:47;;;;;;;1.42;1.00;;;23.00;2.50;;;;;;5027938;28;20021;-60
2022/06/03 11:14:23;;;;;;;1.10;1.00;;;23.20;3.70;;;;;;5007347;28;20448;-60
2022/06/03 11:16:56;;;;;;;2.13;0.98;;;23.30;3.40;;;;;;5027612;28;20112;-60
2022/06/03 11:19:21;;;;;;;1.00;1.00;;;23.50;2.60;;;;;;5007285;28;20400;-61
2022/06/03 11:21:47;;;;;;;1.27;1.17;;;23.70;3.00;;;;;;4991264;28;20030;-60
2022/06/03 11:24:13;;;;;;;1.30;1.20;;;23.50;3.40;;;;;;5025634;28;20029;-60
2022/06/03 11:26:43;;;;;;;2.97;1.05;;;23.30;4.20;;;;;;5007982;28;20030;-60
2022/06/03 11:29:15;;;;;;;0.98;0.98;;;23.30;4.20;;;;;;5015766;28;20033;-62
2022/06/03 11:31:45;;;;;;;0.88;0.88;;;23.00;4.60;;;;;;5008337;28;20030;-62
2022/06/03 11:34:27;;;;;;;1.25;1.08;;;23.10;3.80;;;;;;5004584;28;20048;-61
2022/06/03 11:37:01;;;;;;;3.08;1.00;;;23.30;4.50;;;;;;5006376;28;20029;-61
2022/06/03 11:39:35;;;;;;;1.77;1.08;;;23.30;3.70;;;;;;5011811;28;20160;-61
2022/06/03 11:42:19;;;;;;;1.02;1.00;;;23.30;3.40;;;;;;4988440;28;20061;-61
2022/06/03 11:44:44;;;;;;;2.67;1.30;;;23.00;3.90;;;;;;4992232;28;20510;-61
2022/06/03 11:47:31;;;;;;;1.13;1.00;;;23.00;3.80;;;;;;5026397;28;20032;-61
2022/06/03 11:49:57;;;;;;;0.82;0.82;;;22.90;3.80;;;;;;4988876;28;20034;-61
2022/06/03 11:52:23;;;;;;;0.98;0.80;;;23.00;3.60;;;;;;5006875;28;20037;-61
2022/06/03 11:54:51;;;;;;;1.85;1.35;;;23.10;3.60;;;;;;5011022;28;20165;-60
2022/06/03 11:57:18;;;;;;;2.05;1.02;;;23.30;3.80;;;;;;5027247;28;20393;-61
2022/06/03 12:00:05;;;;;;;0.98;0.90;;;23.50;3.40;;;;;;4991710;28;20115;-61
2022/06/03 12:02:42;;;;;;;1.10;1.00;;;23.60;3.90;;;;;;5008071;28;20025;-61
2022/06/03 12:05:17;;;;;;;0.85;0.85;;;23.70;3.70;;;;;;5002803;28;20076;-61
2022/06/03 12:08:02;;;;;;;1.20;1.10;;;23.60;4.10;;;;;;4988525;28;20121;-61
2022/06/03 12:10:46;;;;;;;1.52;1.10;;;23.50;4.50;;;;;;5005877;28;20033;-60
2022/06/03 12:13:23;;;;;;;1.35;1.13;;;23.40;3.60;;;;;;5024998;28;20017;-60
2022/06/03 12:15:55;;;;;;;1.20;1.10;;;23.20;3.90;;;;;;5027465;28;20025;-61
2022/06/03 12:18:32;;;;;;;1.10;1.00;;;23.20;4.30;;;;;;5009128;28;20029;-61
2022/06/03 12:21:03;;;;;;;1.30;1.20;;;23.20;3.90;;;;;;5008031;28;20494;-61
2022/06/03 12:23:28;;;;;;;1.08;1.00;;;23.30;3.80;;;;;;5000122;28;20038;-60
2022/06/03 12:25:57;;;;;;;1.13;0.90;;;23.50;3.60;;;;;;5030793;28;20033;-61
2022/06/03 12:28:31;;;;;;;0.95;0.88;;;23.70;3.40;;;;;;4998489;28;20082;-61
2022/06/03 12:30:59;;;;;;;1.00;0.88;;;23.90;3.30;;;;;;4996443;28;20029;-61
2022/06/03 12:33:43;;;;;;;0.70;0.70;;;24.00;3.00;;;;;;5012351;28;20068;-61
2022/06/03 12:36:34;;;;;;;1.25;0.98;;;23.90;2.70;;;;;;5007087;28;20132;-61
2022/06/03 12:39:03;;;;;;;2.92;1.10;;;23.90;2.70;;;;;;5027244;28;20041;-61
2022/06/03 12:41:44;;;;;;;1.00;1.00;;;23.80;3.60;;;;;;5011422;28;20042;-60
2022/06/03 12:44:37;;;;;;;1.15;1.00;;;23.60;3.10;;;;;;5008510;28;20033;-61
2022/06/03 12:47:18;;;;;;;0.80;0.80;;;23.60;4.00;;;;;;5026874;28;20461;-61
2022/06/03 12:49:43;;;;;;;0.95;0.93;;;23.60;3.10;;;;;;5008170;28;20036;-61
2022/06/03 12:52:33;;;;;;;1.55;1.10;;;23.50;3.40;;;;;;5004950;28;20038;-61
2022/06/03 12:55:20;;;;;;;0.90;0.90;;;23.50;3.40;;;;;;4990548;28;20453;-61
2022/06/03 12:58:01;;;;;;;1.83;0.80;;;23.50;3.70;;;;;;5004896;28;20037;-61
2022/06/03 13:00:48;;;;;;;1.67;1.20;;;23.40;3.60;;;;;;5015037;28;20077;-53
2022/06/03 13:03:16;;;;;;;2.15;1.15;;;23.40;4.10;;;;;;4990794;28;20121;-51
2022/06/03 13:05:45;;;;;;;1.30;1.20;;;23.40;4.60;;;;;;5028144;28;20069;-54
2022/06/03 13:08:27;;;;;;;1.63;1.50;;;23.50;4.00;;;;;;5027791;28;20037;-47
2022/06/03 13:11:16;;;;;;;1.17;1.08;;;23.50;3.70;;;;;;4990079;28;20034;-54
2022/06/03 13:13:50;;;;;;;1.05;0.95;;;23.30;3.70;;;;;;5029844;28;20491;-54
2022/06/03 13:16:31;;;;;;;5.22;1.20;;;23.40;3.70;;;;;;5008003;28;20026;-57
2022/06/03 13:19:19;;;;;;;1.08;1.00;;;23.40;3.70;;;;;;5009815;28;20064;-55
2022/06/03 13:22:07;;;;;;;2.40;0.80;;;23.60;3.60;;;;;;5003677;28;20044;-55
2022/06/03 13:24:38;;;;;;;1.92;1.27;;;23.70;3.90;;;;;;4990390;28;20034;-53
2022/06/03 13:27:25;;;;;;;1.02;0.93;;;23.70;3.40;;;;;;5009101;28;20032;-55
2022/06/03 13:29:51;;;;;;;3.03;1.15;;;23.70;3.60;;;;;;4989699;28;20042;-56
2022/06/03 13:32:34;;;;;;;1.20;1.10;;;23.70;3.70;;;;;;5001809;28;20637;-55
2022/06/03 13:35:21;;;;;;;1.38;1.20;;;23.60;3.40;;;;;;4989370;28;20030;-54
2022/06/03 13:37:49;;;;;;;1.33;1.23;;;23.70;4.50;;;;;;5004111;28;20037;-53
2022/06/03 13:40:33;;;;;;;1.08;0.98;;;23.80;3.80;;;;;;5011425;28;20065;-53
2022/06/03 13:42:58;;;;;;;1.30;1.20;;;23.90;3.80;;;;;;4989884;28;20041;-54
2022/06/03 13:45:41;;;;;;;1.25;1.15;;;23.90;3.30;;;;;;5009640;28;20034;-55
2022/06/03 13:48:16;;;;;;;2.40;1.20;;;23.70;3.40;;;;;;4989897;28;20038;-54
2022/06/03 13:50:42;;;;;;;1.08;1.00;;;23.70;3.70;;;;;;5005276;28;20172;-55
2022/06/03 13:53:11;;;;;;;1.48;1.05;;;23.60;3.20;;;;;;5028090;28;20496;-55
2022/06/03 13:55:37;;;;;;;1.52;1.42;;;23.50;3.40;;;;;;5006838;28;20033;-56
2022/06/03 13:58:19;;;;;;;1.20;1.10;;;23.50;3.80;;;;;;5028145;28;20033;-56
2022/06/03 14:00:50;;;;;;;2.05;1.38;;;23.50;3.50;;;;;;5003799;28;20097;-55
2022/06/03 14:03:28;;;;;;;2.15;0.90;;;23.50;3.30;;;;;;5014033;28;20029;-45
2022/06/03 14:06:30;;;;;;;3.63;1.10;;;23.50;3.80;;;;;;5028254;28;20025;-54
2022/06/03 14:09:37;;;;;;;2.13;1.40;;;23.60;4.10;;;;;;5015092;28;20030;-55
2022/06/03 14:12:05;;;;;;;1.20;1.08;;;23.50;2.80;;;;;;4989398;28;20359;-56
2022/06/03 14:15:04;;;;;;;1.50;1.00;;;23.50;3.80;;;;;;5012502;28;20161;-61
2022/06/03 14:17:50;;;;;;;2.50;1.40;;;23.50;3.40;;;;;;5007841;28;20288;-61
2022/06/03 14:20:26;;;;;;;1.30;1.10;;;23.70;3.20;;;;;;4989579;28;20275;-63
2022/06/03 14:23:21;;;;;;;1.30;1.20;;;23.70;3.10;;;;;;5030658;28;20086;-64
2022/06/03 14:25:58;;;;;;;2.65;1.40;;;23.80;3.30;;;;;;4998011;28;20400;-64
2022/06/03 14:28:39;;;;;;;1.83;1.33;;;24.00;3.60;;;;;;5013164;28;20436;-64
2022/06/03 14:31:33;;;;;;;1.63;1.25;;;24.00;3.40;;;;;;5002990;28;20037;-64
2022/06/03 14:34:11;;;;;;;1.35;1.25;;;24.10;2.90;;;;;;4991208;28;20088;-64
2022/06/03 14:36:37;;;;;;;1.33;1.20;;;23.90;2.40;;;;;;5011681;28;20037;-64
2022/06/03 14:39:11;;;;;;;1.35;1.10;;;23.70;2.50;;;;;;5011103;28;20116;-64
2022/06/03 14:41:40;;;;;;;1.25;1.10;;;23.60;2.60;;;;;;5011629;28;20049;-64
2022/06/03 14:44:12;;;;;;;1.38;1.02;;;23.70;2.80;;;;;;5010667;28;20029;-64
2022/06/03 14:47:03;;;;;;;0.80;0.80;;;23.90;2.70;;;;;;5011049;28;20022;-63
2022/06/03 14:49:46;;;;;;;0.80;0.80;;;24.00;3.30;;;;;;4991208;28;20030;-63
2022/06/03 14:52:22;;;;;;;1.10;1.00;;;24.00;2.30;;;;;;5005182;28;20026;-64
2022/06/03 14:54:59;;;;;;;1.90;1.20;;;24.00;2.30;;;;;;5030202;28;20068;-61
2022/06/03 14:57:35;;;;;;;0.82;0.82;;;24.00;2.30;;;;;;5006730;28;20056;-64
2022/06/03 15:00:10;;;;;;;1.42;1.00;;;23.90;2.20;;;;;;5015621;28;20030;-64